createdAt,value
2023-05-08T00:00:26.786Z,4.57
2023-05-08T00:01:49.618Z,4.56
2023-05-08T00:02:52.576Z,4.56
2023-05-08T00:03:55.677Z,4.54
2023-05-08T00:04:58.758Z,4.57
2023-05-08T00:06:05.904Z,4.53
2023-05-08T00:07:08.812Z,4.53
2023-05-08T00:08:11.871Z,4.52
2023-05-08T00:09:15.070Z,4.50
2023-05-08T00:10:17.963Z,4.50
2023-05-08T00:11:21.090Z,4.53
2023-05-08T00:12:24.272Z,4.53
2023-05-08T00:13:27.301Z,4.50
2023-05-08T00:14:30.222Z,4.50
2023-05-08T00:15:33.100Z,4.53
2023-05-08T00:16:35.988Z,4.51
2023-05-08T00:17:39.973Z,4.55
2023-05-08T00:18:43.477Z,4.56
2023-05-08T00:19:46.311Z,4.52
2023-05-08T00:20:49.146Z,4.51
2023-05-08T00:21:52.530Z,4.49
2023-05-08T00:22:56.013Z,4.47
2023-05-08T00:23:58.890Z,4.45
2023-05-08T00:25:02.007Z,4.44
2023-05-08T00:26:04.969Z,4.46
2023-05-08T00:27:10.732Z,4.46
2023-05-08T00:28:13.811Z,4.47
2023-05-08T00:29:16.689Z,4.49
2023-05-08T00:30:19.808Z,4.51
2023-05-08T00:31:24.137Z,4.48
2023-05-08T00:32:27.567Z,4.49
2023-05-08T00:33:30.620Z,4.49
2023-05-08T00:34:33.767Z,4.47
2023-05-08T00:35:36.628Z,4.48
2023-05-08T00:36:39.840Z,4.41
2023-05-08T00:37:43.945Z,4.39
2023-05-08T00:38:47.417Z,4.34
2023-05-08T00:39:50.750Z,4.31
2023-05-08T00:40:53.675Z,4.25
2023-05-08T00:41:56.744Z,4.27
2023-05-08T00:42:59.517Z,4.27
2023-05-08T00:44:02.347Z,4.28
2023-05-08T00:45:05.751Z,4.26
2023-05-08T00:46:10.058Z,4.28
2023-05-08T00:47:13.056Z,4.31
2023-05-08T00:48:16.100Z,4.35
2023-05-08T00:49:19.417Z,4.36
2023-05-08T00:50:22.256Z,4.33
2023-05-08T00:51:25.294Z,4.28
2023-05-08T00:52:30.908Z,4.30
2023-05-08T00:53:37.690Z,4.27
2023-05-08T00:54:40.897Z,4.30
2023-05-08T00:55:44.121Z,4.28
2023-05-08T00:56:47.344Z,4.24
2023-05-08T00:57:51.122Z,4.18
2023-05-08T00:58:54.202Z,4.16
2023-05-08T00:59:57.249Z,4.13
2023-05-08T01:01:00.919Z,4.12
2023-05-08T01:02:04.242Z,4.12
2023-05-08T01:03:09.390Z,4.13
2023-05-08T01:04:12.766Z,4.16
2023-05-08T01:05:15.654Z,4.14
2023-05-08T01:06:18.557Z,4.16
2023-05-08T01:07:21.405Z,4.15
2023-05-08T01:08:25.666Z,4.15
2023-05-08T01:09:28.851Z,4.13
2023-05-08T01:11:13.326Z,4.12
2023-05-08T01:12:43.235Z,4.11
2023-05-08T01:13:57.839Z,4.09
2023-05-08T01:15:11.672Z,4.09
2023-05-08T01:16:17.900Z,4.08
2023-05-08T01:17:58.922Z,4.08
2023-05-08T01:19:24.383Z,4.06
2023-05-08T01:20:49.019Z,4.10
2023-05-08T01:22:00.673Z,4.12
2023-05-08T01:23:28.367Z,4.11
2023-05-08T01:25:02.365Z,4.14
2023-05-08T01:26:30.026Z,4.14
2023-05-08T01:27:35.686Z,4.13
2023-05-08T01:29:09.473Z,4.10
2023-05-08T01:30:32.188Z,4.06
2023-05-08T01:32:02.494Z,4.06
2023-05-08T01:33:14.524Z,4.02
2023-05-08T01:34:23.237Z,4.03
2023-05-08T01:36:00.744Z,3.98
2023-05-08T01:37:09.755Z,3.92
2023-05-08T01:38:22.963Z,3.95
2023-05-08T01:39:44.176Z,3.96
2023-05-08T01:40:56.984Z,3.91
2023-05-08T01:42:18.654Z,3.87
2023-05-08T01:43:46.089Z,3.87
2023-05-08T01:44:53.935Z,3.82
2023-05-08T01:45:59.434Z,3.85
2023-05-08T01:47:07.010Z,3.86
2023-05-08T01:48:13.581Z,3.86
2023-05-08T01:49:27.787Z,3.86
2023-05-08T01:50:46.878Z,3.83
2023-05-08T01:51:57.907Z,3.84
2023-05-08T01:53:09.617Z,3.85
2023-05-08T01:54:16.716Z,3.81
2023-05-08T01:55:30.682Z,3.83
2023-05-08T01:56:36.684Z,3.83
2023-05-08T01:57:47.124Z,3.79
2023-05-08T01:58:54.388Z,3.81
2023-05-08T02:00:01.263Z,3.79
2023-05-08T02:01:04.847Z,3.83
2023-05-08T02:02:09.640Z,3.84
2023-05-08T02:03:15.800Z,3.85
2023-05-08T02:04:20.056Z,3.84
2023-05-08T02:05:24.736Z,3.84
2023-05-08T02:06:31.679Z,3.84
2023-05-08T02:07:38.265Z,3.89
2023-05-08T02:08:42.620Z,3.85
2023-05-08T02:09:50.279Z,3.83
2023-05-08T02:10:54.201Z,3.76
2023-05-08T02:11:59.247Z,3.72
2023-05-08T02:13:04.454Z,3.75
2023-05-08T02:14:08.910Z,3.72
2023-05-08T02:15:15.113Z,3.69
2023-05-08T02:16:19.308Z,3.68
2023-05-08T02:17:22.344Z,3.66
2023-05-08T02:18:28.537Z,3.67
2023-05-08T02:19:33.554Z,3.64
2023-05-08T02:20:38.733Z,3.63
2023-05-08T02:21:44.067Z,3.61
2023-05-08T02:22:51.475Z,3.59
2023-05-08T02:23:57.369Z,3.57
2023-05-08T02:25:01.337Z,3.57
2023-05-08T02:26:04.983Z,3.55
2023-05-08T02:27:10.086Z,3.54
2023-05-08T02:28:13.511Z,3.51
2023-05-08T02:29:17.406Z,3.49
2023-05-08T02:30:24.551Z,3.47
2023-05-08T02:31:29.640Z,3.47
2023-05-08T02:32:34.812Z,3.46
2023-05-08T02:33:41.719Z,3.48
2023-05-08T02:34:58.823Z,3.50
2023-05-08T02:36:07.442Z,3.48
2023-05-08T02:37:10.770Z,3.48
2023-05-08T02:38:15.862Z,3.44
2023-05-08T02:39:21.579Z,3.44
2023-05-08T02:40:27.789Z,3.45
2023-05-08T02:41:33.915Z,3.46
2023-05-08T02:42:37.652Z,3.43
2023-05-08T02:43:40.806Z,3.42
2023-05-08T02:44:43.845Z,3.43
2023-05-08T02:46:12.750Z,3.42
2023-05-08T02:47:23.234Z,3.44
2023-05-08T02:48:55.028Z,3.46
2023-05-08T02:50:09.895Z,3.45
2023-05-08T02:51:24.383Z,3.46
2023-05-08T02:52:43.034Z,3.45
2023-05-08T02:53:52.229Z,3.45
2023-05-08T02:54:55.175Z,3.44
2023-05-08T02:56:08.998Z,3.41
2023-05-08T02:57:23.000Z,3.40
2023-05-08T02:58:35.041Z,3.37
2023-05-08T02:59:45.527Z,3.35
2023-05-08T03:01:08.429Z,3.35
2023-05-08T03:02:38.098Z,3.33
2023-05-08T03:03:45.438Z,3.37
2023-05-08T03:04:57.226Z,3.36
2023-05-08T03:06:03.501Z,3.32
2023-05-08T03:07:06.619Z,3.31
2023-05-08T03:08:16.326Z,3.30
2023-05-08T03:09:23.120Z,3.27
2023-05-08T03:10:31.912Z,3.29
2023-05-08T03:11:41.278Z,3.27
2023-05-08T03:12:48.776Z,3.28
2023-05-08T03:13:59.069Z,3.28
2023-05-08T03:15:11.295Z,3.32
2023-05-08T03:16:21.170Z,3.35
2023-05-08T03:17:25.551Z,3.32
2023-05-08T03:18:36.468Z,3.31
2023-05-08T03:19:44.300Z,3.36
2023-05-08T03:20:52.912Z,3.39
2023-05-08T03:21:58.124Z,3.40
2023-05-08T03:23:03.380Z,3.42
2023-05-08T03:24:09.235Z,3.42
2023-05-08T03:25:14.425Z,3.41
2023-05-08T03:26:22.425Z,3.40
2023-05-08T03:27:26.837Z,3.42
2023-05-08T03:28:31.944Z,3.38
2023-05-08T03:29:38.603Z,3.40
2023-05-08T03:30:42.307Z,3.39
2023-05-08T03:31:50.485Z,3.42
2023-05-08T03:32:55.210Z,3.44
2023-05-08T03:33:59.120Z,3.43
2023-05-08T03:35:04.404Z,3.49
2023-05-08T03:36:08.406Z,3.48
2023-05-08T03:37:11.669Z,3.48
2023-05-08T03:38:16.412Z,3.52
2023-05-08T03:39:19.459Z,3.54
2023-05-08T03:40:22.506Z,3.60
2023-05-08T03:41:26.484Z,3.58
2023-05-08T03:42:31.607Z,3.57
2023-05-08T03:43:37.119Z,3.61
2023-05-08T03:44:40.066Z,3.59
2023-05-08T03:45:44.246Z,3.57
2023-05-08T03:46:48.964Z,3.58
2023-05-08T03:47:53.963Z,3.56
2023-05-08T03:49:00.425Z,3.56
2023-05-08T03:50:03.909Z,3.57
2023-05-08T03:51:06.983Z,3.55
2023-05-08T03:52:13.289Z,3.56
2023-05-08T03:53:16.646Z,3.59
2023-05-08T03:54:19.575Z,3.61
2023-05-08T03:55:22.932Z,3.66
2023-05-08T03:56:26.275Z,3.72
2023-05-08T03:57:51.214Z,3.78
2023-05-08T03:59:17.035Z,3.84
2023-05-08T04:00:32.088Z,3.87
2023-05-08T04:01:51.655Z,3.88
2023-05-08T04:03:11.105Z,3.94
2023-05-08T04:04:47.448Z,3.96
2023-05-08T04:06:08.006Z,3.92
2023-05-08T04:07:38.504Z,4.00
2023-05-08T04:08:49.079Z,3.98
2023-05-08T04:10:00.566Z,3.96
2023-05-08T04:11:15.836Z,3.98
2023-05-08T04:12:22.979Z,3.97
2023-05-08T04:13:31.451Z,4.05
2023-05-08T04:14:44.207Z,4.04
2023-05-08T04:16:00.572Z,4.09
2023-05-08T04:17:10.083Z,4.13
2023-05-08T04:18:19.062Z,4.16
2023-05-08T04:19:30.120Z,4.21
2023-05-08T04:20:34.168Z,4.25
2023-05-08T04:21:42.450Z,4.34
2023-05-08T04:22:48.401Z,4.43
2023-05-08T04:23:56.315Z,4.46
2023-05-08T04:25:02.996Z,4.56
2023-05-08T04:26:07.985Z,4.67
2023-05-08T04:27:12.154Z,4.70
2023-05-08T04:28:16.955Z,4.76
2023-05-08T04:29:20.974Z,4.82
2023-05-08T04:30:25.720Z,4.86
2023-05-08T04:31:30.660Z,4.93
2023-05-08T04:32:35.226Z,4.96
2023-05-08T04:33:39.281Z,5.01
2023-05-08T04:34:42.552Z,5.05
2023-05-08T04:35:46.408Z,5.10
2023-05-08T04:36:49.682Z,5.15
2023-05-08T04:37:53.668Z,5.15
2023-05-08T04:38:57.130Z,5.17
2023-05-08T04:40:01.348Z,5.21
2023-05-08T04:41:05.565Z,5.26
2023-05-08T04:42:08.520Z,5.31
2023-05-08T04:43:11.698Z,5.32
2023-05-08T04:44:14.871Z,5.36
2023-05-08T04:45:18.113Z,5.41
2023-05-08T04:46:21.292Z,5.48
2023-05-08T04:47:24.507Z,5.56
2023-05-08T04:48:27.639Z,5.60
2023-05-08T04:49:30.684Z,5.65
2023-05-08T04:50:34.121Z,5.70
2023-05-08T04:51:37.236Z,5.72
2023-05-08T04:52:40.666Z,5.75
2023-05-08T04:53:43.801Z,5.80
2023-05-08T04:54:47.061Z,5.79
2023-05-08T04:55:50.511Z,5.80
2023-05-08T04:56:53.489Z,5.84
2023-05-08T04:57:56.547Z,5.88
2023-05-08T04:58:59.446Z,5.89
2023-05-08T05:00:02.587Z,5.91
2023-05-08T05:01:06.346Z,5.94
2023-05-08T05:02:09.802Z,5.99
2023-05-08T05:03:13.107Z,5.99
2023-05-08T05:04:16.249Z,6.04
2023-05-08T05:05:19.506Z,6.07
2023-05-08T05:06:22.913Z,6.07
2023-05-08T05:07:26.182Z,6.14
2023-05-08T05:08:29.318Z,6.19
2023-05-08T05:09:37.068Z,6.20
2023-05-08T05:10:44.291Z,6.29
2023-05-08T05:11:47.256Z,6.30
2023-05-08T05:12:50.996Z,6.35
2023-05-08T05:13:54.355Z,6.37
2023-05-08T05:14:57.731Z,6.42
2023-05-08T05:16:01.097Z,6.51
2023-05-08T05:17:04.669Z,6.57
2023-05-08T05:18:07.707Z,6.64
2023-05-08T05:19:10.685Z,6.68
2023-05-08T05:20:14.231Z,6.69
2023-05-08T05:21:17.250Z,6.74
2023-05-08T05:22:20.400Z,6.79
2023-05-08T05:23:23.398Z,6.87
2023-05-08T05:24:26.324Z,6.91
2023-05-08T05:25:29.196Z,6.96
2023-05-08T05:26:32.205Z,7.02
2023-05-08T05:27:36.955Z,7.07
2023-05-08T05:28:40.192Z,7.11
2023-05-08T05:29:43.422Z,7.15
2023-05-08T05:30:49.441Z,7.22
2023-05-08T05:31:52.995Z,7.27
2023-05-08T05:32:56.325Z,7.34
2023-05-08T05:33:59.516Z,7.37
2023-05-08T05:35:06.356Z,7.42
2023-05-08T05:36:09.437Z,7.49
2023-05-08T05:37:12.549Z,7.51
2023-05-08T05:38:15.533Z,7.56
2023-05-08T05:39:18.766Z,7.62
2023-05-08T05:40:21.801Z,7.71
2023-05-08T05:41:24.743Z,7.75
2023-05-08T05:42:27.779Z,7.80
2023-05-08T05:43:31.015Z,7.85
2023-05-08T05:44:33.899Z,7.90
2023-05-08T05:45:37.090Z,7.96
2023-05-08T05:46:42.719Z,8.03
2023-05-08T05:47:50.060Z,8.17
2023-05-08T05:48:54.305Z,8.27
2023-05-08T05:49:58.084Z,8.31
2023-05-08T05:51:03.685Z,8.38
2023-05-08T05:52:06.734Z,8.47
2023-05-08T05:53:10.087Z,8.53
2023-05-08T05:54:14.597Z,8.64
2023-05-08T05:55:17.646Z,8.67
2023-05-08T05:56:23.626Z,8.77
2023-05-08T05:57:26.510Z,8.86
2023-05-08T05:58:29.776Z,8.90
2023-05-08T05:59:33.089Z,8.97
2023-05-08T06:00:36.171Z,9.02
2023-05-08T06:01:39.380Z,9.09
2023-05-08T06:02:42.872Z,9.21
2023-05-08T06:03:49.093Z,9.28
2023-05-08T06:04:52.484Z,9.36
2023-05-08T06:05:56.454Z,9.42
2023-05-08T06:06:59.490Z,9.53
2023-05-08T06:08:02.396Z,9.63
2023-05-08T06:09:07.092Z,9.82
2023-05-08T06:10:11.095Z,9.94
2023-05-08T06:11:14.153Z,10.07
2023-05-08T06:12:18.538Z,10.13
2023-05-08T06:13:21.475Z,10.20
2023-05-08T06:14:24.707Z,10.27
2023-05-08T06:15:27.567Z,10.35
2023-05-08T06:16:30.826Z,10.40
2023-05-08T06:17:33.977Z,10.46
2023-05-08T06:18:37.592Z,10.55
2023-05-08T06:19:40.560Z,10.67
2023-05-08T06:20:43.513Z,10.76
2023-05-08T06:21:46.422Z,10.87
2023-05-08T06:22:49.248Z,10.96
2023-05-08T06:23:52.304Z,11.09
2023-05-08T06:24:55.704Z,11.19
2023-05-08T06:25:58.801Z,11.29
2023-05-08T06:27:01.770Z,11.46
2023-05-08T06:28:06.708Z,11.52
2023-05-08T06:29:09.619Z,11.57
2023-05-08T06:30:15.655Z,11.63
2023-05-08T06:31:19.248Z,11.76
2023-05-08T06:32:22.628Z,11.91
2023-05-08T06:33:27.150Z,12.05
2023-05-08T06:34:30.121Z,12.21
2023-05-08T06:35:32.958Z,12.33
2023-05-08T06:36:36.430Z,12.45
2023-05-08T06:37:39.272Z,12.64
2023-05-08T06:38:42.157Z,12.85
2023-05-08T06:39:45.026Z,13.11
2023-05-08T06:40:50.191Z,13.16
2023-05-08T06:41:53.019Z,13.28
2023-05-08T06:43:01.078Z,13.36
2023-05-08T06:44:04.344Z,13.49
2023-05-08T06:45:08.919Z,13.55
2023-05-08T06:46:11.994Z,13.70
2023-05-08T06:47:14.951Z,13.87
2023-05-08T06:48:17.830Z,14.10
2023-05-08T06:49:21.122Z,14.35
2023-05-08T06:50:24.092Z,14.55
2023-05-08T06:51:27.244Z,14.65
2023-05-08T06:52:30.113Z,14.79
2023-05-08T06:53:32.963Z,15.05
2023-05-08T06:54:35.903Z,15.18
2023-05-08T06:55:38.889Z,15.35
2023-05-08T06:56:42.225Z,15.44
2023-05-08T06:57:45.126Z,15.57
2023-05-08T06:58:57.066Z,15.65
2023-05-08T07:00:11.693Z,15.77
2023-05-08T07:01:15.200Z,15.86
2023-05-08T07:02:18.297Z,15.90
2023-05-08T07:03:21.316Z,15.98
2023-05-08T07:04:24.667Z,16.07
2023-05-08T07:05:27.702Z,16.10
2023-05-08T07:06:34.628Z,16.11
2023-05-08T07:07:37.558Z,15.99
2023-05-08T07:08:41.331Z,15.85
2023-05-08T07:09:44.204Z,15.85
2023-05-08T07:10:47.074Z,15.80
2023-05-08T07:11:49.913Z,15.80
2023-05-08T07:12:52.948Z,15.82
2023-05-08T07:13:56.103Z,15.78
2023-05-08T07:14:59.601Z,15.85
2023-05-08T07:16:03.540Z,15.93
2023-05-08T07:17:09.328Z,16.01
2023-05-08T07:18:12.234Z,16.08
2023-05-08T07:19:15.244Z,16.13
2023-05-08T07:20:18.208Z,16.13
2023-05-08T07:21:21.416Z,16.10
2023-05-08T07:22:24.297Z,16.08
2023-05-08T07:23:27.629Z,16.13
2023-05-08T07:24:30.644Z,16.24
2023-05-08T07:25:33.737Z,16.30
2023-05-08T07:26:36.605Z,16.33
2023-05-08T07:27:39.534Z,16.38
2023-05-08T07:28:42.370Z,16.42
2023-05-08T07:29:45.202Z,16.37
2023-05-08T07:30:48.075Z,16.38
2023-05-08T07:31:52.201Z,16.41
2023-05-08T07:32:55.152Z,16.50
2023-05-08T07:33:58.133Z,16.63
2023-05-08T07:35:02.983Z,16.69
2023-05-08T07:36:06.070Z,16.75
2023-05-08T07:37:09.110Z,16.86
2023-05-08T07:38:12.078Z,16.99
2023-05-08T07:39:15.100Z,17.08
2023-05-08T07:40:18.096Z,17.24
2023-05-08T07:41:20.958Z,17.34
2023-05-08T07:42:23.798Z,17.35
2023-05-08T07:43:26.667Z,17.23
2023-05-08T07:44:37.562Z,16.97
2023-05-08T07:45:46.479Z,16.87
2023-05-08T07:46:49.548Z,16.98
2023-05-08T07:47:54.799Z,17.17
2023-05-08T07:48:57.659Z,17.20
2023-05-08T07:50:00.763Z,17.09
2023-05-08T07:51:03.843Z,17.07
2023-05-08T07:52:06.814Z,17.17
2023-05-08T07:53:09.664Z,17.32
2023-05-08T07:54:12.479Z,17.44
2023-05-08T07:55:15.627Z,17.56
2023-05-08T07:56:18.931Z,17.64
2023-05-08T07:57:21.892Z,17.71
2023-05-08T07:58:25.225Z,17.79
2023-05-08T07:59:28.110Z,17.86
2023-05-08T08:00:31.533Z,17.90
2023-05-08T08:01:34.576Z,17.95
2023-05-08T08:02:38.820Z,18.06
2023-05-08T08:03:41.988Z,18.05
2023-05-08T08:04:45.661Z,17.97
2023-05-08T08:05:48.622Z,17.91
2023-05-08T08:06:51.450Z,17.79
2023-05-08T08:07:54.335Z,17.69
2023-05-08T08:08:57.311Z,17.59
2023-05-08T08:10:00.770Z,17.55
2023-05-08T08:11:04.010Z,17.57
2023-05-08T08:12:07.228Z,17.61
2023-05-08T08:13:10.136Z,17.63
2023-05-08T08:14:12.979Z,17.68
2023-05-08T08:15:16.125Z,17.63
2023-05-08T08:16:19.550Z,17.51
2023-05-08T08:17:22.954Z,17.50
2023-05-08T08:18:26.071Z,17.49
2023-05-08T08:19:28.905Z,17.45
2023-05-08T08:20:31.765Z,17.45
2023-05-08T08:21:34.721Z,17.46
2023-05-08T08:22:37.966Z,17.49
2023-05-08T08:23:40.939Z,17.49
2023-05-08T08:24:43.753Z,17.41
2023-05-08T08:25:46.745Z,17.38
2023-05-08T08:26:49.613Z,17.42
2023-05-08T08:27:52.511Z,17.50
2023-05-08T08:28:55.388Z,17.55
2023-05-08T08:30:12.987Z,17.57
2023-05-08T08:31:20.329Z,17.52
2023-05-08T08:32:23.362Z,17.54
2023-05-08T08:33:28.800Z,17.61
2023-05-08T08:34:33.720Z,17.71
2023-05-08T08:35:36.698Z,17.76
2023-05-08T08:36:39.897Z,17.75
2023-05-08T08:37:43.254Z,17.80
2023-05-08T08:38:46.138Z,17.86
2023-05-08T08:39:49.444Z,17.84
2023-05-08T08:40:53.230Z,17.74
2023-05-08T08:41:56.677Z,17.69
2023-05-08T08:42:59.572Z,17.64
2023-05-08T08:44:02.411Z,17.57
2023-05-08T08:45:06.942Z,17.55
2023-05-08T08:46:15.495Z,17.57
2023-05-08T08:47:19.488Z,17.54
2023-05-08T08:48:27.459Z,17.54
2023-05-08T08:49:35.736Z,17.53
2023-05-08T08:50:43.956Z,17.38
2023-05-08T08:51:52.682Z,17.22
2023-05-08T08:53:07.451Z,17.20
2023-05-08T08:54:13.319Z,17.28
2023-05-08T08:55:18.456Z,17.33
2023-05-08T08:56:23.908Z,17.42
2023-05-08T08:57:32.866Z,17.62
2023-05-08T08:58:46.852Z,17.78
2023-05-08T08:59:49.957Z,17.89
2023-05-08T09:00:55.191Z,17.97
2023-05-08T09:02:06.314Z,18.06
2023-05-08T09:03:10.025Z,18.18
2023-05-08T09:04:13.292Z,18.31
2023-05-08T09:05:16.517Z,18.43
2023-05-08T09:06:20.144Z,18.53
2023-05-08T09:07:23.102Z,18.54
2023-05-08T09:08:26.118Z,18.51
2023-05-08T09:09:29.289Z,18.51
2023-05-08T09:10:32.118Z,18.52
2023-05-08T09:11:36.357Z,18.57
2023-05-08T09:12:41.164Z,18.56
2023-05-08T09:13:44.094Z,18.53
2023-05-08T09:14:47.036Z,18.58
2023-05-08T09:15:52.925Z,18.59
2023-05-08T09:16:55.825Z,18.57
2023-05-08T09:18:00.836Z,18.56
2023-05-08T09:19:04.699Z,18.59
2023-05-08T09:20:08.878Z,18.58
2023-05-08T09:21:11.944Z,18.57
2023-05-08T09:22:15.760Z,18.63
2023-05-08T09:23:18.629Z,18.61
2023-05-08T09:24:23.086Z,18.69
2023-05-08T09:25:25.869Z,18.77
2023-05-08T09:26:37.072Z,18.80
2023-05-08T09:27:39.879Z,18.89
2023-05-08T09:28:43.139Z,18.91
2023-05-08T09:30:07.987Z,18.82
2023-05-08T09:31:10.810Z,18.70
2023-05-08T09:32:18.630Z,18.56
2023-05-08T09:33:27.824Z,18.35
2023-05-08T09:34:33.206Z,18.19
2023-05-08T09:35:36.828Z,18.01
2023-05-08T09:36:42.303Z,17.88
2023-05-08T09:37:46.472Z,17.83
2023-05-08T09:38:49.320Z,17.80
2023-05-08T09:39:53.009Z,17.71
2023-05-08T09:41:14.693Z,17.59
2023-05-08T09:42:17.593Z,17.42
2023-05-08T09:43:20.696Z,17.27
2023-05-08T09:44:23.417Z,17.15
2023-05-08T09:45:31.737Z,17.05
2023-05-08T09:46:35.602Z,16.93
2023-05-08T09:47:39.672Z,16.85
2023-05-08T09:48:42.752Z,16.80
2023-05-08T09:50:02.084Z,16.75
2023-05-08T09:51:07.723Z,16.64
2023-05-08T09:52:15.983Z,16.56
2023-05-08T09:53:18.859Z,16.50
2023-05-08T09:54:22.453Z,16.39
2023-05-08T09:55:25.199Z,16.31
2023-05-08T09:56:41.240Z,16.36
2023-05-08T09:57:58.560Z,16.49
2023-05-08T09:59:03.658Z,16.76
2023-05-08T10:00:14.678Z,17.05
2023-05-08T10:01:32.836Z,17.30
2023-05-08T10:02:37.290Z,17.50
2023-05-08T10:03:50.299Z,17.54
2023-05-08T10:04:53.084Z,17.48
2023-05-08T10:06:11.825Z,17.40
2023-05-08T10:07:14.654Z,17.33
2023-05-08T10:08:22.473Z,17.26
2023-05-08T10:09:27.397Z,17.19
2023-05-08T10:10:33.646Z,17.09
2023-05-08T10:11:37.280Z,16.97
2023-05-08T10:12:41.617Z,16.84
2023-05-08T10:13:45.182Z,16.75
2023-05-08T10:14:47.934Z,16.87
2023-05-08T10:15:54.821Z,16.96
2023-05-08T10:17:00.919Z,17.10
2023-05-08T10:18:14.683Z,17.21
2023-05-08T10:19:19.750Z,17.29
2023-05-08T10:20:24.257Z,17.39
2023-05-08T10:21:29.577Z,17.54
2023-05-08T10:22:36.996Z,17.69
2023-05-08T10:23:40.369Z,17.85
2023-05-08T10:24:44.314Z,17.99
2023-05-08T10:25:48.793Z,18.15
2023-05-08T10:27:07.368Z,18.29
2023-05-08T10:28:15.605Z,18.42
2023-05-08T10:29:25.550Z,18.48
2023-05-08T10:30:31.184Z,18.50
2023-05-08T10:31:36.664Z,18.64
2023-05-08T10:32:43.947Z,18.75
2023-05-08T10:33:51.277Z,18.82
2023-05-08T10:34:59.151Z,18.81
2023-05-08T10:36:02.215Z,18.76
2023-05-08T10:37:06.190Z,18.72
2023-05-08T10:38:09.599Z,18.68
2023-05-08T10:39:14.794Z,18.73
2023-05-08T10:40:18.785Z,18.84
2023-05-08T10:41:23.208Z,18.86
2023-05-08T10:42:27.716Z,18.95
2023-05-08T10:43:33.635Z,19.04
2023-05-08T10:44:36.981Z,19.13
2023-05-08T10:45:40.301Z,19.22
2023-05-08T10:46:58.587Z,19.33
2023-05-08T10:48:22.414Z,19.45
2023-05-08T10:49:48.704Z,19.63
2023-05-08T10:51:01.193Z,19.73
2023-05-08T10:52:12.560Z,19.84
2023-05-08T10:53:57.300Z,19.87
2023-05-08T10:55:04.453Z,19.99
2023-05-08T10:56:07.392Z,20.13
2023-05-08T10:57:12.291Z,20.18
2023-05-08T10:58:23.880Z,20.12
2023-05-08T10:59:26.629Z,19.86
2023-05-08T11:00:53.385Z,19.61
2023-05-08T11:02:05.515Z,19.37
2023-05-08T11:03:20.092Z,19.19
2023-05-08T11:04:30.550Z,19.11
2023-05-08T11:05:46.499Z,19.12
2023-05-08T11:06:53.070Z,19.23
2023-05-08T11:07:57.768Z,19.31
2023-05-08T11:09:00.997Z,19.29
2023-05-08T11:10:13.139Z,19.20
2023-05-08T11:11:29.194Z,19.08
2023-05-08T11:12:33.939Z,19.06
2023-05-08T11:13:50.302Z,19.17
2023-05-08T11:15:13.445Z,19.33
2023-05-08T11:16:16.605Z,19.42
2023-05-08T11:17:24.088Z,19.46
2023-05-08T11:18:32.559Z,19.61
2023-05-08T11:20:02.382Z,19.78
2023-05-08T11:21:14.480Z,20.00
2023-05-08T11:22:26.020Z,20.04
2023-05-08T11:23:30.180Z,19.99
2023-05-08T11:24:38.320Z,19.98
2023-05-08T11:25:44.655Z,19.98
2023-05-08T11:26:50.067Z,19.94
2023-05-08T11:27:55.883Z,19.94
2023-05-08T11:28:59.385Z,20.02
2023-05-08T11:30:25.835Z,20.02
2023-05-08T11:32:02.162Z,20.15
2023-05-08T11:33:05.329Z,20.38
2023-05-08T11:34:44.371Z,20.42
2023-05-08T11:35:48.727Z,20.50
2023-05-08T11:37:03.607Z,20.57
2023-05-08T11:38:23.602Z,20.73
2023-05-08T11:39:26.607Z,20.83
2023-05-08T11:40:45.934Z,20.85
2023-05-08T11:41:48.626Z,20.97
2023-05-08T11:42:51.432Z,21.09
2023-05-08T11:44:02.976Z,21.05
2023-05-08T11:45:08.355Z,21.01
2023-05-08T11:46:20.163Z,20.89
2023-05-08T11:47:25.728Z,20.87
2023-05-08T11:48:28.975Z,20.90
2023-05-08T11:49:31.707Z,20.91
2023-05-08T11:50:36.105Z,20.97
2023-05-08T11:51:39.636Z,21.10
2023-05-08T11:52:43.497Z,21.35
2023-05-08T11:53:47.076Z,21.57
2023-05-08T11:54:49.854Z,21.75
2023-05-08T11:55:54.079Z,21.88
2023-05-08T11:56:57.574Z,21.99
2023-05-08T11:58:00.334Z,22.03
2023-05-08T11:59:05.069Z,22.06
2023-05-08T12:00:10.039Z,22.10
2023-05-08T12:01:20.147Z,22.17
2023-05-08T12:02:55.507Z,22.24
2023-05-08T12:04:06.292Z,22.36
2023-05-08T12:05:10.732Z,22.45
2023-05-08T12:06:13.800Z,22.47
2023-05-08T12:07:16.745Z,22.57
2023-05-08T12:08:19.627Z,22.75
2023-05-08T12:09:22.487Z,23.00
2023-05-08T12:10:25.436Z,23.18
2023-05-08T12:11:28.193Z,23.36
2023-05-08T12:12:41.357Z,23.49
2023-05-08T12:13:51.162Z,23.59
2023-05-08T12:14:54.038Z,23.67
2023-05-08T12:16:01.368Z,23.65
2023-05-08T12:17:04.233Z,23.59
2023-05-08T12:18:06.976Z,23.54
2023-05-08T12:19:11.723Z,23.57
2023-05-08T12:20:16.300Z,23.64
2023-05-08T12:21:21.285Z,23.69
2023-05-08T12:22:24.093Z,23.68
2023-05-08T12:23:29.369Z,23.69
2023-05-08T12:24:32.575Z,23.82
2023-05-08T12:25:37.353Z,23.98
2023-05-08T12:26:40.083Z,24.13
2023-05-08T12:27:43.344Z,24.24
2023-05-08T12:28:47.266Z,24.37
2023-05-08T12:29:50.054Z,24.52
2023-05-08T12:30:53.854Z,24.67
2023-05-08T12:31:57.106Z,24.86
2023-05-08T12:33:01.011Z,25.10
2023-05-08T12:34:05.271Z,25.38
2023-05-08T12:35:09.363Z,25.60
2023-05-08T12:36:12.209Z,25.74
2023-05-08T12:37:27.855Z,25.82
2023-05-08T12:38:30.679Z,25.92
2023-05-08T12:39:37.577Z,26.06
2023-05-08T12:40:43.377Z,26.17
2023-05-08T12:41:50.486Z,26.11
2023-05-08T12:42:53.862Z,25.99
2023-05-08T12:43:57.241Z,25.89
2023-05-08T12:45:00.124Z,25.85
2023-05-08T12:46:11.432Z,25.90
2023-05-08T12:47:14.409Z,25.85
2023-05-08T12:48:17.334Z,25.71
2023-05-08T12:49:31.381Z,25.81
2023-05-08T12:50:40.151Z,25.99
2023-05-08T12:51:46.183Z,26.04
2023-05-08T12:52:51.565Z,25.88
2023-05-08T12:53:54.705Z,25.88
2023-05-08T12:54:57.449Z,25.93
2023-05-08T12:56:09.665Z,25.89
2023-05-08T12:57:14.554Z,25.63
2023-05-08T12:58:17.487Z,25.52
2023-05-08T12:59:28.975Z,25.53
2023-05-08T13:00:52.190Z,25.58
2023-05-08T13:01:54.960Z,25.45
2023-05-08T13:02:57.839Z,25.42
2023-05-08T13:04:03.175Z,25.46
2023-05-08T13:05:06.800Z,25.53
2023-05-08T13:06:21.292Z,25.72
2023-05-08T13:07:24.176Z,25.88
2023-05-08T13:08:35.342Z,25.98
2023-05-08T13:09:39.123Z,26.09
2023-05-08T13:10:55.739Z,26.13
2023-05-08T13:11:59.079Z,25.96
2023-05-08T13:13:01.976Z,25.88
2023-05-08T13:14:04.752Z,25.72
2023-05-08T13:15:08.173Z,25.54
2023-05-08T13:16:11.254Z,25.34
2023-05-08T13:17:18.374Z,25.23
2023-05-08T13:18:24.205Z,25.10
2023-05-08T13:19:27.711Z,24.94
2023-05-08T13:20:30.480Z,24.80
2023-05-08T13:21:33.332Z,24.62
2023-05-08T13:22:36.107Z,24.41
2023-05-08T13:23:39.953Z,24.15
2023-05-08T13:24:43.068Z,23.82
2023-05-08T13:25:45.892Z,23.28
2023-05-08T13:26:48.678Z,22.79
2023-05-08T13:27:51.389Z,22.50
2023-05-08T13:28:56.043Z,22.32
2023-05-08T13:29:59.341Z,22.16
2023-05-08T13:31:02.066Z,21.98
2023-05-08T13:32:04.944Z,21.79
2023-05-08T13:33:08.049Z,21.64
2023-05-08T13:34:10.974Z,21.43
2023-05-08T13:35:13.824Z,21.21
2023-05-08T13:36:16.634Z,21.05
2023-05-08T13:37:19.572Z,20.94
2023-05-08T13:38:22.338Z,20.89
2023-05-08T13:39:25.572Z,20.84
2023-05-08T13:40:28.565Z,20.76
2023-05-08T13:41:31.652Z,20.67
2023-05-08T13:42:34.517Z,20.59
2023-05-08T13:43:37.650Z,20.53
2023-05-08T13:44:40.756Z,20.50
2023-05-08T13:45:44.318Z,20.49
2023-05-08T13:46:48.534Z,20.51
2023-05-08T13:47:51.484Z,20.52
2023-05-08T13:48:54.244Z,20.51
2023-05-08T13:49:57.081Z,20.47
2023-05-08T13:50:59.959Z,20.41
2023-05-08T13:52:02.776Z,20.34
2023-05-08T13:53:06.230Z,20.25
2023-05-08T13:54:09.107Z,20.15
2023-05-08T13:55:13.692Z,20.08
2023-05-08T13:56:16.834Z,19.97
2023-05-08T13:57:19.604Z,19.88
2023-05-08T13:58:22.606Z,19.82
2023-05-08T13:59:25.822Z,19.73
2023-05-08T14:00:28.680Z,19.61
2023-05-08T14:01:31.575Z,19.49
2023-05-08T14:02:34.757Z,19.36
2023-05-08T14:03:37.818Z,19.22
2023-05-08T14:04:40.893Z,19.09
2023-05-08T14:05:43.755Z,18.98
2023-05-08T14:06:46.600Z,18.89
2023-05-08T14:07:49.457Z,18.76
2023-05-08T14:10:17.101Z,18.54
2023-05-08T14:11:20.054Z,18.46
2023-05-08T14:12:22.804Z,18.38
2023-05-08T14:12:42.858Z,18.67
2023-05-08T14:13:25.650Z,18.28
2023-05-08T14:14:28.524Z,18.21
2023-05-08T14:15:37.026Z,18.17
2023-05-08T14:16:40.769Z,18.17
2023-05-08T14:17:43.823Z,18.16
2023-05-08T14:18:46.706Z,18.11
2023-05-08T14:19:49.560Z,17.98
2023-05-08T14:20:57.397Z,17.88
2023-05-08T14:22:00.742Z,17.84
2023-05-08T14:23:03.977Z,17.84
2023-05-08T14:24:06.955Z,17.84
2023-05-08T14:25:10.226Z,17.85
2023-05-08T14:26:12.981Z,17.85